Neshkoro, Wisconsin
Current Conditions -  °F | °C
As of 4:20 PM on Sunday 23 Nov 2014 (Local Time) from KY50 Reporting Station
Light Rain Light Rain  
Wind Chill: 43°   Ceiling: 300
Heat Index: 46°   Visibility: 3mi
Dew Point: 46°   Wind: 7mph
Humidity: 100%   Direction: 150°SSE
Pressure: 29.42"   Gusts: NA
Location:  43.97°N, 89.22°W
Report Text: KY50 232220Z AUTO 15006KT 3SM -RA BR OVC003 08/08 A2942 RMK AO2 TSNO RAB12 P0000
Loading
Personal Weather Stations






























Interactive Weather Map New forecast layout! Learn more

10-Day Weather Forecast

Advertisements
Track Severe Weather on mobile